sensor_id;sensor_type;location;lat;lon;timestamp;temperature;humidity
41944;DHT22;27636;52.610;13.244;2023-02-04T00:04:30;3.50;99.90
41944;DHT22;27636;52.610;13.244;2023-02-04T00:09:33;3.40;99.90
41944;DHT22;27636;52.610;13.244;2023-02-04T00:14:38;3.40;99.90
41944;DHT22;27636;52.610;13.244;2023-02-04T00:19:42;3.50;99.90
41944;DHT22;27636;52.610;13.244;2023-02-04T00:24:45;3.30;99.90
41944;DHT22;27636;52.610;13.244;2023-02-04T00:29:53;3.40;99.90
41944;DHT22;27636;52.610;13.244;2023-02-04T00:34:57;3.40;99.90
41944;DHT22;27636;52.610;13.244;2023-02-04T00:40:01;3.30;99.90
41944;DHT22;27636;52.610;13.244;2023-02-04T00:45:07;3.20;99.90
41944;DHT22;27636;52.610;13.244;2023-02-04T00:50:12;3.20;99.90
41944;DHT22;27636;52.610;13.244;2023-02-04T00:55:15;2.90;99.90
41944;DHT22;27636;52.610;13.244;2023-02-04T01:00:21;2.70;99.90
41944;DHT22;27636;52.610;13.244;2023-02-04T01:05:25;2.60;99.90
41944;DHT22;27636;52.610;13.244;2023-02-04T01:10:28;2.50;99.90
41944;DHT22;27636;52.610;13.244;2023-02-04T01:15:34;2.40;99.90
41944;DHT22;27636;52.610;13.244;2023-02-04T01:20:37;2.30;99.90
41944;DHT22;27636;52.610;13.244;2023-02-04T01:25:41;2.20;99.90
41944;DHT22;27636;52.610;13.244;2023-02-04T01:30:45;2.10;99.90
41944;DHT22;27636;52.610;13.244;2023-02-04T01:35:49;2.30;99.90
41944;DHT22;27636;52.610;13.244;2023-02-04T01:40:52;2.40;99.90
41944;DHT22;27636;52.610;13.244;2023-02-04T01:45:58;2.40;99.90
41944;DHT22;27636;52.610;13.244;2023-02-04T01:51:05;2.30;99.90
41944;DHT22;27636;52.610;13.244;2023-02-04T01:56:14;2.00;99.90
41944;DHT22;27636;52.610;13.244;2023-02-04T02:01:35;1.70;99.90
41944;DHT22;27636;52.610;13.244;2023-02-04T02:06:43;1.60;99.90
41944;DHT22;27636;52.610;13.244;2023-02-04T02:11:47;1.40;99.90
41944;DHT22;27636;52.610;13.244;2023-02-04T02:16:52;1.10;99.90
41944;DHT22;27636;52.610;13.244;2023-02-04T02:22:00;0.90;99.90
41944;DHT22;27636;52.610;13.244;2023-02-04T02:27:08;0.70;99.90
41944;DHT22;27636;52.610;13.244;2023-02-04T02:32:13;0.60;99.90
41944;DHT22;27636;52.610;13.244;2023-02-04T02:37:18;0.60;99.90
41944;DHT22;27636;52.610;13.244;2023-02-04T02:42:22;0.80;99.90
41944;DHT22;27636;52.610;13.244;2023-02-04T02:47:26;0.80;99.90
41944;DHT22;27636;52.610;13.244;2023-02-04T02:52:30;0.60;99.90
41944;DHT22;27636;52.610;13.244;2023-02-04T02:57:35;0.60;99.90
41944;DHT22;27636;52.610;13.244;2023-02-04T03:02:39;0.50;99.90
41944;DHT22;27636;52.610;13.244;2023-02-04T03:07:43;0.50;99.90
41944;DHT22;27636;52.610;13.244;2023-02-04T03:12:47;0.50;99.90
41944;DHT22;27636;52.610;13.244;2023-02-04T03:17:52;0.50;99.90
41944;DHT22;27636;52.610;13.244;2023-02-04T03:22:58;0.30;99.90
41944;DHT22;27636;52.610;13.244;2023-02-04T03:28:04;0.10;99.90
41944;DHT22;27636;52.610;13.244;2023-02-04T03:33:08;0.00;99.90
41944;DHT22;27636;52.610;13.244;2023-02-04T03:38:12;-0.10;99.90
41944;DHT22;27636;52.610;13.244;2023-02-04T03:43:17;0.20;99.90
41944;DHT22;27636;52.610;13.244;2023-02-04T03:48:21;0.20;99.90
41944;DHT22;27636;52.610;13.244;2023-02-04T03:53:24;0.20;99.90
41944;DHT22;27636;52.610;13.244;2023-02-04T03:58:29;0.10;99.90
41944;DHT22;27636;52.610;13.244;2023-02-04T04:03:32;0.00;99.90
41944;DHT22;27636;52.610;13.244;2023-02-04T04:08:35;-0.10;99.90
41944;DHT22;27636;52.610;13.244;2023-02-04T04:13:40;0.10;99.90
41944;DHT22;27636;52.610;13.244;2023-02-04T04:18:43;0.20;99.90
41944;DHT22;27636;52.610;13.244;2023-02-04T04:23:47;0.20;99.90
41944;DHT22;27636;52.610;13.244;2023-02-04T04:28:51;0.20;99.90
41944;DHT22;27636;52.610;13.244;2023-02-04T04:33:55;0.00;99.90
41944;DHT22;27636;52.610;13.244;2023-02-04T04:38:58;-0.10;99.90
41944;DHT22;27636;52.610;13.244;2023-02-04T04:44:04;-0.10;99.90
41944;DHT22;27636;52.610;13.244;2023-02-04T04:49:07;-0.30;99.90
41944;DHT22;27636;52.610;13.244;2023-02-04T04:54:10;-0.50;99.90
41944;DHT22;27636;52.610;13.244;2023-02-04T04:59:15;-0.60;99.90
41944;DHT22;27636;52.610;13.244;2023-02-04T05:04:18;-0.70;99.90
41944;DHT22;27636;52.610;13.244;2023-02-04T05:09:22;-0.70;99.90
41944;DHT22;27636;52.610;13.244;2023-02-04T05:14:27;-0.80;99.90
41944;DHT22;27636;52.610;13.244;2023-02-04T05:19:30;-0.80;99.90
41944;DHT22;27636;52.610;13.244;2023-02-04T05:24:33;-0.90;99.90
41944;DHT22;27636;52.610;13.244;2023-02-04T05:29:38;-0.90;99.90
41944;DHT22;27636;52.610;13.244;2023-02-04T05:34:42;-0.90;99.90
41944;DHT22;27636;52.610;13.244;2023-02-04T05:39:45;-1.00;99.90
41944;DHT22;27636;52.610;13.244;2023-02-04T05:44:50;-1.00;99.90
41944;DHT22;27636;52.610;13.244;2023-02-04T05:49:54;-1.00;99.90
41944;DHT22;27636;52.610;13.244;2023-02-04T05:54:57;-0.90;99.90
41944;DHT22;27636;52.610;13.244;2023-02-04T06:00:02;-0.90;99.90
41944;DHT22;27636;52.610;13.244;2023-02-04T06:05:14;-0.90;99.90
41944;DHT22;27636;52.610;13.244;2023-02-04T06:10:17;-0.80;99.90
41944;DHT22;27636;52.610;13.244;2023-02-04T06:15:24;-0.90;99.90
41944;DHT22;27636;52.610;13.244;2023-02-04T06:20:28;-0.90;99.90
41944;DHT22;27636;52.610;13.244;2023-02-04T06:25:32;-0.80;99.90
41944;DHT22;27636;52.610;13.244;2023-02-04T06:30:36;-1.00;99.90
41944;DHT22;27636;52.610;13.244;2023-02-04T06:35:40;-1.10;99.90
41944;DHT22;27636;52.610;13.244;2023-02-04T06:40:43;-1.20;99.90
41944;DHT22;27636;52.610;13.244;2023-02-04T06:45:48;-1.20;99.90
41944;DHT22;27636;52.610;13.244;2023-02-04T06:50:53;-1.50;99.90
41944;DHT22;27636;52.610;13.244;2023-02-04T06:55:56;-1.40;99.90
41944;DHT22;27636;52.610;13.244;2023-02-04T07:01:01;-1.20;99.90
41944;DHT22;27636;52.610;13.244;2023-02-04T07:06:04;-1.20;99.90
41944;DHT22;27636;52.610;13.244;2023-02-04T07:11:07;-1.20;99.90
41944;DHT22;27636;52.610;13.244;2023-02-04T07:16:12;-1.20;99.90
41944;DHT22;27636;52.610;13.244;2023-02-04T07:21:16;-1.10;99.90
41944;DHT22;27636;52.610;13.244;2023-02-04T07:26:19;-1.10;99.90
41944;DHT22;27636;52.610;13.244;2023-02-04T07:31:24;-1.10;99.90
41944;DHT22;27636;52.610;13.244;2023-02-04T07:36:28;-1.00;99.90
41944;DHT22;27636;52.610;13.244;2023-02-04T07:41:32;-0.90;99.90
41944;DHT22;27636;52.610;13.244;2023-02-04T07:46:37;-0.50;99.90
41944;DHT22;27636;52.610;13.244;2023-02-04T07:51:40;-0.50;99.90
41944;DHT22;27636;52.610;13.244;2023-02-04T07:56:43;-0.30;99.90
41944;DHT22;27636;52.610;13.244;2023-02-04T08:01:48;-0.10;99.90
41944;DHT22;27636;52.610;13.244;2023-02-04T08:06:51;0.20;99.90
41944;DHT22;27636;52.610;13.244;2023-02-04T08:11:55;0.30;99.90
41944;DHT22;27636;52.610;13.244;2023-02-04T08:16:59;0.50;99.90
41944;DHT22;27636;52.610;13.244;2023-02-04T08:22:03;0.60;99.90
41944;DHT22;27636;52.610;13.244;2023-02-04T08:27:06;0.70;99.90
41944;DHT22;27636;52.610;13.244;2023-02-04T08:32:11;0.90;99.90
41944;DHT22;27636;52.610;13.244;2023-02-04T08:37:15;1.00;99.90
41944;DHT22;27636;52.610;13.244;2023-02-04T08:42:19;1.10;99.90
41944;DHT22;27636;52.610;13.244;2023-02-04T08:47:23;1.30;99.90
41944;DHT22;27636;52.610;13.244;2023-02-04T08:52:26;1.50;99.90
41944;DHT22;27636;52.610;13.244;2023-02-04T08:57:30;1.70;99.90
41944;DHT22;27636;52.610;13.244;2023-02-04T09:02:34;2.00;99.90
41944;DHT22;27636;52.610;13.244;2023-02-04T09:07:38;3.70;99.90
41944;DHT22;27636;52.610;13.244;2023-02-04T09:12:41;5.40;99.90
41944;DHT22;27636;52.610;13.244;2023-02-04T09:17:46;6.80;99.90
41944;DHT22;27636;52.610;13.244;2023-02-04T09:22:49;7.30;99.90
41944;DHT22;27636;52.610;13.244;2023-02-04T09:27:53;7.70;99.90
41944;DHT22;27636;52.610;13.244;2023-02-04T09:32:57;7.20;99.90
41944;DHT22;27636;52.610;13.244;2023-02-04T09:38:01;7.40;99.90
41944;DHT22;27636;52.610;13.244;2023-02-04T09:43:04;7.80;99.90
41944;DHT22;27636;52.610;13.244;2023-02-04T09:48:12;7.80;99.90
41944;DHT22;27636;52.610;13.244;2023-02-04T09:53:19;8.30;99.90
41944;DHT22;27636;52.610;13.244;2023-02-04T09:58:27;7.10;99.90
41944;DHT22;27636;52.610;13.244;2023-02-04T10:03:32;7.40;99.90
41944;DHT22;27636;52.610;13.244;2023-02-04T10:08:39;6.30;99.90
41944;DHT22;27636;52.610;13.244;2023-02-04T10:13:45;5.50;99.90
41944;DHT22;27636;52.610;13.244;2023-02-04T10:18:50;4.60;99.90
41944;DHT22;27636;52.610;13.244;2023-02-04T10:23:55;4.50;99.90
41944;DHT22;27636;52.610;13.244;2023-02-04T10:29:00;4.50;99.90
41944;DHT22;27636;52.610;13.244;2023-02-04T10:34:09;4.70;99.90
41944;DHT22;27636;52.610;13.244;2023-02-04T10:39:16;4.70;99.90
41944;DHT22;27636;52.610;13.244;2023-02-04T10:44:27;4.70;99.90
41944;DHT22;27636;52.610;13.244;2023-02-04T10:49:32;5.10;99.90
41944;DHT22;27636;52.610;13.244;2023-02-04T10:54:37;5.10;99.90
41944;DHT22;27636;52.610;13.244;2023-02-04T10:59:41;5.40;99.90
41944;DHT22;27636;52.610;13.244;2023-02-04T11:04:46;5.50;99.90
41944;DHT22;27636;52.610;13.244;2023-02-04T11:09:50;5.40;99.90
41944;DHT22;27636;52.610;13.244;2023-02-04T11:14:55;5.30;99.90
41944;DHT22;27636;52.610;13.244;2023-02-04T11:20:11;5.20;99.90
41944;DHT22;27636;52.610;13.244;2023-02-04T11:25:32;4.60;99.90
41944;DHT22;27636;52.610;13.244;2023-02-04T11:30:36;4.70;99.90
41944;DHT22;27636;52.610;13.244;2023-02-04T11:35:59;5.60;99.90
41944;DHT22;27636;52.610;13.244;2023-02-04T11:41:03;6.00;99.90
41944;DHT22;27636;52.610;13.244;2023-02-04T11:46:12;5.20;99.90
41944;DHT22;27636;52.610;13.244;2023-02-04T11:51:21;5.30;99.90
41944;DHT22;27636;52.610;13.244;2023-02-04T11:56:27;5.90;99.90
41944;DHT22;27636;52.610;13.244;2023-02-04T12:01:32;5.60;99.90
41944;DHT22;27636;52.610;13.244;2023-02-04T12:06:38;5.20;99.90
41944;DHT22;27636;52.610;13.244;2023-02-04T12:11:50;4.40;99.90
41944;DHT22;27636;52.610;13.244;2023-02-04T12:16:54;4.30;99.90
41944;DHT22;27636;52.610;13.244;2023-02-04T12:21:59;5.20;99.90
41944;DHT22;27636;52.610;13.244;2023-02-04T12:27:03;5.10;99.90
41944;DHT22;27636;52.610;13.244;2023-02-04T12:32:06;5.20;99.90
41944;DHT22;27636;52.610;13.244;2023-02-04T12:37:11;4.90;99.90
41944;DHT22;27636;52.610;13.244;2023-02-04T12:42:14;4.60;99.90
41944;DHT22;27636;52.610;13.244;2023-02-04T12:47:17;6.00;99.90
41944;DHT22;27636;52.610;13.244;2023-02-04T12:52:22;6.70;97.00
41944;DHT22;27636;52.610;13.244;2023-02-04T12:57:26;5.60;98.80
41944;DHT22;27636;52.610;13.244;2023-02-04T13:02:29;5.80;99.80
41944;DHT22;27636;52.610;13.244;2023-02-04T13:07:34;7.70;96.00
41944;DHT22;27636;52.610;13.244;2023-02-04T13:12:37;8.10;93.40
41944;DHT22;27636;52.610;13.244;2023-02-04T13:17:41;7.20;95.20
41944;DHT22;27636;52.610;13.244;2023-02-04T13:22:45;7.00;94.40
41944;DHT22;27636;52.610;13.244;2023-02-04T13:27:49;7.40;93.40
41944;DHT22;27636;52.610;13.244;2023-02-04T13:32:52;7.20;93.10
41944;DHT22;27636;52.610;13.244;2023-02-04T13:37:57;6.50;92.30
41944;DHT22;27636;52.610;13.244;2023-02-04T13:43:00;5.20;95.60
41944;DHT22;27636;52.610;13.244;2023-02-04T13:48:04;4.50;97.60
41944;DHT22;27636;52.610;13.244;2023-02-04T13:53:09;4.40;98.20
41944;DHT22;27636;52.610;13.244;2023-02-04T13:58:12;4.20;98.10
41944;DHT22;27636;52.610;13.244;2023-02-04T14:03:15;4.50;98.40
41944;DHT22;27636;52.610;13.244;2023-02-04T14:08:21;5.60;96.70
41944;DHT22;27636;52.610;13.244;2023-02-04T14:13:24;6.60;93.10
41944;DHT22;27636;52.610;13.244;2023-02-04T14:18:28;5.70;92.60
41944;DHT22;27636;52.610;13.244;2023-02-04T14:23:33;4.90;95.30
41944;DHT22;27636;52.610;13.244;2023-02-04T14:28:36;4.90;94.80
41944;DHT22;27636;52.610;13.244;2023-02-04T14:33:40;5.10;95.10
41944;DHT22;27636;52.610;13.244;2023-02-04T14:38:45;5.10;94.50
41944;DHT22;27636;52.610;13.244;2023-02-04T14:43:48;4.70;96.20
41944;DHT22;27636;52.610;13.244;2023-02-04T14:48:52;4.30;96.60
41944;DHT22;27636;52.610;13.244;2023-02-04T14:53:58;3.90;97.20
41944;DHT22;27636;52.610;13.244;2023-02-04T14:59:01;3.90;97.30
41944;DHT22;27636;52.610;13.244;2023-02-04T15:04:05;3.80;97.60
41944;DHT22;27636;52.610;13.244;2023-02-04T15:09:10;3.70;97.10
41944;DHT22;27636;52.610;13.244;2023-02-04T15:14:13;3.60;97.20
41944;DHT22;27636;52.610;13.244;2023-02-04T15:19:17;3.20;97.80
41944;DHT22;27636;52.610;13.244;2023-02-04T15:24:21;2.80;99.70
41944;DHT22;27636;52.610;13.244;2023-02-04T15:29:25;2.80;99.90
41944;DHT22;27636;52.610;13.244;2023-02-04T15:34:29;3.00;99.10
41944;DHT22;27636;52.610;13.244;2023-02-04T15:39:33;2.80;99.90
41944;DHT22;27636;52.610;13.244;2023-02-04T15:44:38;2.60;99.90
41944;DHT22;27636;52.610;13.244;2023-02-04T15:49:42;2.40;99.90
41944;DHT22;27636;52.610;13.244;2023-02-04T15:54:47;2.10;99.90
41944;DHT22;27636;52.610;13.244;2023-02-04T15:59:51;1.60;99.90
41944;DHT22;27636;52.610;13.244;2023-02-04T16:04:54;1.10;99.90
41944;DHT22;27636;52.610;13.244;2023-02-04T16:09:59;1.20;99.90
41944;DHT22;27636;52.610;13.244;2023-02-04T16:15:02;0.90;99.90
41944;DHT22;27636;52.610;13.244;2023-02-04T16:20:07;0.60;99.90
41944;DHT22;27636;52.610;13.244;2023-02-04T16:25:12;0.30;99.90
41944;DHT22;27636;52.610;13.244;2023-02-04T16:30:16;-0.10;99.90
41944;DHT22;27636;52.610;13.244;2023-02-04T16:35:19;-0.30;99.90
41944;DHT22;27636;52.610;13.244;2023-02-04T16:40:24;-0.50;99.90
41944;DHT22;27636;52.610;13.244;2023-02-04T16:45:28;-0.40;99.90
41944;DHT22;27636;52.610;13.244;2023-02-04T16:50:31;-0.60;99.90
41944;DHT22;27636;52.610;13.244;2023-02-04T16:55:37;-0.70;99.90
41944;DHT22;27636;52.610;13.244;2023-02-04T17:00:42;-0.90;99.90
41944;DHT22;27636;52.610;13.244;2023-02-04T17:05:46;-1.10;99.90
41944;DHT22;27636;52.610;13.244;2023-02-04T17:10:51;-1.10;99.90
41944;DHT22;27636;52.610;13.244;2023-02-04T17:16:13;-1.30;99.90
41944;DHT22;27636;52.610;13.244;2023-02-04T17:21:17;-1.40;99.90
41944;DHT22;27636;52.610;13.244;2023-02-04T17:26:22;-1.50;99.90
41944;DHT22;27636;52.610;13.244;2023-02-04T17:31:26;-1.70;99.90
41944;DHT22;27636;52.610;13.244;2023-02-04T17:36:30;-1.80;99.90
41944;DHT22;27636;52.610;13.244;2023-02-04T17:41:35;-2.00;99.90
41944;DHT22;27636;52.610;13.244;2023-02-04T17:46:39;-2.00;99.90
41944;DHT22;27636;52.610;13.244;2023-02-04T17:51:42;-2.00;99.90
41944;DHT22;27636;52.610;13.244;2023-02-04T17:56:47;-2.00;99.90
41944;DHT22;27636;52.610;13.244;2023-02-04T18:01:52;-2.10;99.90
41944;DHT22;27636;52.610;13.244;2023-02-04T18:06:55;-2.20;99.90
41944;DHT22;27636;52.610;13.244;2023-02-04T18:12:01;-2.30;99.90
41944;DHT22;27636;52.610;13.244;2023-02-04T18:17:09;-2.40;99.90
41944;DHT22;27636;52.610;13.244;2023-02-04T18:22:15;-2.50;99.90
41944;DHT22;27636;52.610;13.244;2023-02-04T18:27:23;-2.40;99.90
41944;DHT22;27636;52.610;13.244;2023-02-04T18:32:34;-2.60;99.90
41944;DHT22;27636;52.610;13.244;2023-02-04T18:37:45;-2.60;99.90
41944;DHT22;27636;52.610;13.244;2023-02-04T18:42:57;-2.80;99.90
41944;DHT22;27636;52.610;13.244;2023-02-04T18:53:56;-2.80;99.90
41944;DHT22;27636;52.610;13.244;2023-02-04T18:59:10;-2.80;99.90
41944;DHT22;27636;52.610;13.244;2023-02-04T19:04:17;-2.10;99.90
41944;DHT22;27636;52.610;13.244;2023-02-04T19:09:23;-1.80;99.90
41944;DHT22;27636;52.610;13.244;2023-02-04T19:14:34;-1.70;99.90
41944;DHT22;27636;52.610;13.244;2023-02-04T19:19:39;-1.40;99.90
41944;DHT22;27636;52.610;13.244;2023-02-04T19:24:45;-1.50;99.90
41944;DHT22;27636;52.610;13.244;2023-02-04T19:29:50;-1.40;99.90
41944;DHT22;27636;52.610;13.244;2023-02-04T19:35:00;-1.40;99.90
41944;DHT22;27636;52.610;13.244;2023-02-04T19:40:23;-1.50;99.90
41944;DHT22;27636;52.610;13.244;2023-02-04T19:45:29;-1.60;99.90
41944;DHT22;27636;52.610;13.244;2023-02-04T19:50:33;-1.70;99.90
41944;DHT22;27636;52.610;13.244;2023-02-04T19:55:41;-2.10;99.90
41944;DHT22;27636;52.610;13.244;2023-02-04T20:00:58;-2.30;99.90
41944;DHT22;27636;52.610;13.244;2023-02-04T20:06:28;-2.70;99.90
41944;DHT22;27636;52.610;13.244;2023-02-04T20:11:49;-2.90;99.90
41944;DHT22;27636;52.610;13.244;2023-02-04T20:16:57;-3.00;99.90
41944;DHT22;27636;52.610;13.244;2023-02-04T20:22:20;-3.20;99.90
41944;DHT22;27636;52.610;13.244;2023-02-04T20:27:29;-3.20;99.90
41944;DHT22;27636;52.610;13.244;2023-02-04T20:32:38;-3.10;99.90
41944;DHT22;27636;52.610;13.244;2023-02-04T20:37:42;-2.90;99.90
41944;DHT22;27636;52.610;13.244;2023-02-04T20:42:46;-2.80;99.90
41944;DHT22;27636;52.610;13.244;2023-02-04T20:47:55;-3.00;99.90
41944;DHT22;27636;52.610;13.244;2023-02-04T20:53:05;-3.30;99.90
41944;DHT22;27636;52.610;13.244;2023-02-04T20:58:15;-3.30;99.90
41944;DHT22;27636;52.610;13.244;2023-02-04T21:03:23;-3.40;99.90
41944;DHT22;27636;52.610;13.244;2023-02-04T21:08:32;-3.50;99.90
41944;DHT22;27636;52.610;13.244;2023-02-04T21:13:36;-3.60;99.90
41944;DHT22;27636;52.610;13.244;2023-02-04T21:18:42;-3.50;99.90
41944;DHT22;27636;52.610;13.244;2023-02-04T21:23:45;-3.70;99.90
41944;DHT22;27636;52.610;13.244;2023-02-04T21:28:49;-3.60;99.90
41944;DHT22;27636;52.610;13.244;2023-02-04T21:33:54;-3.60;99.90
41944;DHT22;27636;52.610;13.244;2023-02-04T21:38:59;-3.70;99.90
41944;DHT22;27636;52.610;13.244;2023-02-04T21:44:03;-3.70;99.90
41944;DHT22;27636;52.610;13.244;2023-02-04T21:49:08;-3.70;99.90
41944;DHT22;27636;52.610;13.244;2023-02-04T21:54:11;-3.80;99.90
41944;DHT22;27636;52.610;13.244;2023-02-04T21:59:15;-3.80;99.90
41944;DHT22;27636;52.610;13.244;2023-02-04T22:04:22;-3.80;99.90
41944;DHT22;27636;52.610;13.244;2023-02-04T22:09:25;-3.70;99.90
41944;DHT22;27636;52.610;13.244;2023-02-04T22:14:29;-3.40;99.90
41944;DHT22;27636;52.610;13.244;2023-02-04T22:19:52;-3.20;99.90
41944;DHT22;27636;52.610;13.244;2023-02-04T22:24:55;-3.00;99.90
41944;DHT22;27636;52.610;13.244;2023-02-04T22:29:58;-3.00;99.90
41944;DHT22;27636;52.610;13.244;2023-02-04T22:35:07;-2.90;99.90
41944;DHT22;27636;52.610;13.244;2023-02-04T22:40:12;-2.90;99.90
41944;DHT22;27636;52.610;13.244;2023-02-04T22:45:16;-2.90;99.90
41944;DHT22;27636;52.610;13.244;2023-02-04T22:50:21;-2.90;99.90
41944;DHT22;27636;52.610;13.244;2023-02-04T22:55:24;-2.90;99.90
41944;DHT22;27636;52.610;13.244;2023-02-04T23:00:27;-2.80;99.90
41944;DHT22;27636;52.610;13.244;2023-02-04T23:05:32;-2.70;99.90
41944;DHT22;27636;52.610;13.244;2023-02-04T23:10:37;-2.80;99.90
41944;DHT22;27636;52.610;13.244;2023-02-04T23:15:41;-2.70;99.90
41944;DHT22;27636;52.610;13.244;2023-02-04T23:20:46;-2.70;99.90
41944;DHT22;27636;52.610;13.244;2023-02-04T23:25:50;-2.70;99.90
41944;DHT22;27636;52.610;13.244;2023-02-04T23:30:53;-2.70;99.90
41944;DHT22;27636;52.610;13.244;2023-02-04T23:35:58;-2.70;99.90
41944;DHT22;27636;52.610;13.244;2023-02-04T23:41:02;-2.80;99.90
41944;DHT22;27636;52.610;13.244;2023-02-04T23:46:05;-2.80;99.90
41944;DHT22;27636;52.610;13.244;2023-02-04T23:51:10;-2.70;99.90
41944;DHT22;27636;52.610;13.244;2023-02-04T23:56:14;-2.70;99.90
